Time;durP1;ratioP1;P1;durP2;ratioP2;P2;SDS_P1;SDS_P2;PMS_P1;PMS_P2;Temp;Humidity;BMP_temperature;BMP_pressure;BME280_temperature;BME280_humidity;BME280_pressure;Samples;Min_cycle;Max_cycle;Signal;HPM_P1;HPM_P2
2022/10/18 00:00:46;;;;;;;0.00;0.00;;;19.10;99.90;;;;;;5065866;28;20194;-65
2022/10/18 00:03:14;;;;;;;0.00;0.00;;;19.10;99.90;;;;;;5068659;28;20209;-66
2022/10/18 00:05:42;;;;;;;0.00;0.00;;;19.00;99.90;;;;;;5066693;28;20350;-67
2022/10/18 00:08:09;;;;;;;0.00;0.00;;;19.00;99.90;;;;;;5068792;28;20294;-67
2022/10/18 00:10:36;;;;;;;0.00;0.00;;;19.00;99.90;;;;;;5069990;28;20304;-66
2022/10/18 00:13:04;;;;;;;0.00;0.00;;;18.90;99.90;;;;;;5067872;28;20304;-66
2022/10/18 00:15:31;;;;;;;0.00;0.00;;;18.90;99.90;;;;;;5071187;28;20202;-66
2022/10/18 00:17:58;;;;;;;0.00;0.00;;;18.90;99.90;;;;;;5074354;28;20274;-67
2022/10/18 00:20:26;;;;;;;0.00;0.00;;;18.80;99.90;;;;;;5075287;28;20201;-65
2022/10/18 00:22:55;;;;;;;0.00;0.00;;;18.90;99.90;;;;;;5074900;28;20213;-66
2022/10/18 00:25:22;;;;;;;0.00;0.00;;;18.80;99.90;;;;;;5074563;28;20281;-66
2022/10/18 00:27:49;;;;;;;0.00;0.00;;;18.80;99.90;;;;;;5067820;28;20299;-66
2022/10/18 00:30:16;;;;;;;0.00;0.00;;;18.80;99.90;;;;;;5069456;28;20302;-67
2022/10/18 00:32:43;;;;;;;0.00;0.00;;;18.70;99.90;;;;;;5073087;28;20209;-66
2022/10/18 00:35:10;;;;;;;0.00;0.00;;;18.70;99.90;;;;;;5073365;28;20643;-67
2022/10/18 00:37:38;;;;;;;0.00;0.00;;;18.70;99.90;;;;;;5052855;28;20226;-67
2022/10/18 00:40:08;;;;;;;0.00;0.00;;;18.70;99.90;;;;;;5069421;28;20194;-67
2022/10/18 00:42:37;;;;;;;0.00;0.00;;;18.60;99.90;;;;;;5066739;28;20218;-67
2022/10/18 00:45:15;;;;;;;0.00;0.00;;;18.60;99.90;;;;;;5073480;28;20217;-67
2022/10/18 00:47:44;;;;;;;0.00;0.00;;;18.60;99.90;;;;;;5071248;28;20307;-67
2022/10/18 00:50:11;;;;;;;0.00;0.00;;;18.60;99.90;;;;;;5071915;28;20253;-67
2022/10/18 00:52:42;;;;;;;0.00;0.00;;;18.60;99.90;;;;;;5068389;28;20202;-67
2022/10/18 00:55:11;;;;;;;0.00;0.00;;;18.50;99.90;;;;;;5070363;28;20210;-67
2022/10/18 00:57:39;;;;;;;0.00;0.00;;;18.50;99.90;;;;;;5070073;28;20271;-67
2022/10/18 01:00:08;;;;;;;0.00;0.00;;;18.50;99.90;;;;;;5066312;28;20260;-67
2022/10/18 01:02:36;;;;;;;0.00;0.00;;;18.50;99.90;;;;;;5071995;28;20202;-67
2022/10/18 01:05:03;;;;;;;0.00;0.00;;;18.50;99.90;;;;;;5071329;28;20186;-67
2022/10/18 01:07:52;;;;;;;0.00;0.00;;;18.40;99.90;;;;;;5103638;27;20202;-67
2022/10/18 01:10:27;;;;;;;0.00;0.00;;;18.40;99.90;;;;;;5087113;28;20583;-68
2022/10/18 01:13:12;;;;;;;0.00;0.00;;;18.40;99.90;;;;;;5070132;28;20285;-66
2022/10/18 01:15:54;;;;;;;0.00;0.00;;;18.30;99.90;;;;;;5100783;27;20220;-67
2022/10/18 01:18:25;;;;;;;0.00;0.00;;;18.30;99.90;;;;;;5085637;28;20226;-66
2022/10/18 01:21:16;;;;;;;0.00;0.00;;;18.30;99.90;;;;;;5055534;28;20202;-67
2022/10/18 01:24:02;;;;;;;0.00;0.00;;;;;;;;;;5057866;28;20228;-68
2022/10/18 01:26:39;;;;;;;0.00;0.00;;;;;;;;;;5103040;27;20620;-67
2022/10/18 01:29:19;;;;;;;0.00;0.00;;;18.30;99.90;;;;;;5069676;28;20288;-68
2022/10/18 01:31:50;;;;;;;0.00;0.00;;;;;;;;;;5101256;27;20210;-67
2022/10/18 01:34:18;;;;;;;0.00;0.00;;;18.20;99.90;;;;;;5070848;28;20289;-67
2022/10/18 01:36:47;;;;;;;0.00;0.00;;;;;;;;;;5065921;28;20194;-68
2022/10/18 01:39:17;;;;;;;0.00;0.00;;;;;;;;;;5087025;28;20579;-68
2022/10/18 01:41:46;;;;;;;0.00;0.00;;;;;;;;;;5069265;28;20254;-68
2022/10/18 01:44:15;;;;;;;0.00;0.00;;;;;;;;;;5070361;28;20223;-68
2022/10/18 01:46:43;;;;;;;0.00;0.00;;;;;;;;;;5069183;28;20198;-68
2022/10/18 01:49:12;;;;;;;0.00;0.00;;;;;;;;;;5068814;28;20262;-68
2022/10/18 01:51:39;;;;;;;0.00;0.00;;;;;;;;;;5070409;28;20206;-68
2022/10/18 01:54:07;;;;;;;0.00;0.00;;;;;;;;;;5068943;28;20427;-68
2022/10/18 01:56:38;;;;;;;0.00;0.00;;;;;;;;;;5068427;28;20288;-67
2022/10/18 01:59:17;;;;;;;0.00;0.00;;;;;;;;;;5071670;28;20217;-68
2022/10/18 02:01:51;;;;;;;0.00;0.00;;;;;;;;;;5067732;28;20211;-68
2022/10/18 02:04:24;;;;;;;0.00;0.00;;;;;;;;;;5069591;28;20194;-67
2022/10/18 02:06:55;;;;;;;0.00;0.00;;;;;;;;;;5083662;28;20203;-68
2022/10/18 02:09:27;;;;;;;0.00;0.00;;;;;;;;;;5067078;28;20277;-66
2022/10/18 02:11:55;;;;;;;0.00;0.00;;;;;;;;;;5054650;28;20225;-68
2022/10/18 02:14:25;;;;;;;0.00;0.00;;;;;;;;;;5073883;28;20236;-69
2022/10/18 02:16:54;;;;;;;0.00;0.00;;;;;;;;;;5064978;28;20202;-67
2022/10/18 02:19:25;;;;;;;0.00;0.00;;;;;;;;;;5070802;28;20217;-68
2022/10/18 02:21:54;;;;;;;0.00;0.00;;;;;;;;;;5068978;28;20270;-68
2022/10/18 02:24:26;;;;;;;0.00;0.00;;;17.90;99.90;;;;;;5070384;28;20198;-68
2022/10/18 02:26:54;;;;;;;0.00;0.00;;;17.80;99.90;;;;;;5053126;28;20194;-69
2022/10/18 02:29:21;;;;;;;0.00;0.00;;;17.80;99.90;;;;;;5069042;28;20221;-70
2022/10/18 02:31:53;;;;;;;0.00;0.00;;;17.80;99.90;;;;;;5067149;28;20284;-68
2022/10/18 02:34:25;;;;;;;0.00;0.00;;;17.80;99.90;;;;;;5069419;28;20199;-68
2022/10/18 02:36:58;;;;;;;0.00;0.00;;;17.70;99.90;;;;;;5065218;28;20293;-67
2022/10/18 02:39:30;;;;;;;0.00;0.00;;;17.70;99.90;;;;;;5068060;28;20237;-67
2022/10/18 02:41:58;;;;;;;0.00;0.00;;;17.70;99.90;;;;;;5068273;28;20248;-68
2022/10/18 02:44:25;;;;;;;0.00;0.00;;;17.70;99.90;;;;;;5068041;28;20198;-67
2022/10/18 02:46:53;;;;;;;0.00;0.00;;;17.60;99.90;;;;;;5064683;28;20667;-66
2022/10/18 02:49:20;;;;;;;0.00;0.00;;;17.60;99.90;;;;;;5096784;27;20221;-68
2022/10/18 02:51:48;;;;;;;0.00;0.00;;;17.60;99.90;;;;;;5065402;28;20209;-68
2022/10/18 02:54:15;;;;;;;0.00;0.00;;;17.60;99.90;;;;;;5070279;28;20317;-67
2022/10/18 02:56:42;;;;;;;0.00;0.00;;;17.60;99.90;;;;;;5067242;28;20206;-67
2022/10/18 02:59:10;;;;;;;0.00;0.00;;;17.50;99.90;;;;;;5066919;28;20229;-68
2022/10/18 03:01:37;;;;;;;0.00;0.00;;;17.60;99.90;;;;;;5067796;28;20359;-69
2022/10/18 03:04:05;;;;;;;0.00;0.00;;;17.50;99.90;;;;;;5068952;28;20201;-67
2022/10/18 03:06:32;;;;;;;0.00;0.00;;;17.50;99.90;;;;;;5067340;28;20214;-67
2022/10/18 03:09:02;;;;;;;0.00;0.00;;;17.50;99.90;;;;;;5065135;28;20328;-68
2022/10/18 03:11:29;;;;;;;0.00;0.00;;;17.50;99.90;;;;;;5067716;28;20201;-68
2022/10/18 03:13:56;;;;;;;0.00;0.00;;;17.50;99.90;;;;;;5067862;28;20193;-68
2022/10/18 03:16:24;;;;;;;0.00;0.00;;;17.40;99.90;;;;;;5069750;28;20205;-68
2022/10/18 03:18:51;;;;;;;0.00;0.00;;;17.40;99.90;;;;;;5070459;28;20218;-68
2022/10/18 03:21:18;;;;;;;0.00;0.00;;;17.40;99.90;;;;;;5082098;28;20233;-68
2022/10/18 03:23:45;;;;;;;0.00;0.00;;;17.40;99.90;;;;;;5065937;28;20194;-67
2022/10/18 03:26:14;;;;;;;0.00;0.00;;;17.40;99.90;;;;;;5066499;28;20202;-68
2022/10/18 03:28:41;;;;;;;0.00;0.00;;;17.40;99.90;;;;;;5070292;28;20211;-68
2022/10/18 03:31:08;;;;;;;0.00;0.00;;;17.40;99.90;;;;;;5067261;28;20265;-68
2022/10/18 03:33:36;;;;;;;0.00;0.00;;;17.40;99.90;;;;;;5052772;28;20220;-69
2022/10/18 03:36:03;;;;;;;0.00;0.00;;;17.40;99.90;;;;;;5068018;28;20230;-68
2022/10/18 03:38:30;;;;;;;0.00;0.00;;;17.40;99.90;;;;;;5063903;28;20222;-68
2022/10/18 03:40:59;;;;;;;0.00;0.00;;;17.30;99.90;;;;;;5066281;28;20766;-69
2022/10/18 03:43:28;;;;;;;0.00;0.00;;;;;;;;;;5064286;28;20268;-68
2022/10/18 03:45:55;;;;;;;0.00;0.00;;;;;;;;;;5067473;28;20198;-68
2022/10/18 03:48:22;;;;;;;0.00;0.00;;;;;;;;;;5097668;27;20230;-67
2022/10/18 03:50:50;;;;;;;0.00;0.00;;;17.30;99.90;;;;;;5081046;28;20198;-68
2022/10/18 03:53:17;;;;;;;0.00;0.00;;;17.30;99.90;;;;;;5063644;28;20194;-67
2022/10/18 03:55:45;;;;;;;0.00;0.00;;;17.20;99.90;;;;;;5066975;28;20205;-69
2022/10/18 03:58:12;;;;;;;0.00;0.00;;;17.20;99.90;;;;;;5065201;28;20218;-69
2022/10/18 04:00:41;;;;;;;0.00;0.00;;;17.10;99.90;;;;;;5066620;28;20206;-68
2022/10/18 04:03:08;;;;;;;0.00;0.00;;;17.10;99.90;;;;;;5066873;28;20193;-67
2022/10/18 04:05:35;;;;;;;0.00;0.00;;;17.00;99.90;;;;;;5064639;28;20297;-67
2022/10/18 04:08:03;;;;;;;0.00;0.00;;;17.00;99.90;;;;;;5051982;28;20291;-67
2022/10/18 04:10:30;;;;;;;0.00;0.00;;;16.90;99.90;;;;;;5067529;28;20229;-67
2022/10/18 04:12:58;;;;;;;0.00;0.00;;;16.90;99.90;;;;;;5068824;28;20202;-68
2022/10/18 04:15:25;;;;;;;0.00;0.00;;;16.90;99.90;;;;;;5068498;28;20221;-67
2022/10/18 04:17:53;;;;;;;0.00;0.00;;;16.80;99.90;;;;;;5064079;28;20226;-67
2022/10/18 04:20:21;;;;;;;0.00;0.00;;;16.80;99.90;;;;;;5082293;28;20198;-68
2022/10/18 04:22:49;;;;;;;0.00;0.00;;;16.80;99.90;;;;;;5065358;28;20238;-68
2022/10/18 04:25:19;;;;;;;0.00;0.00;;;16.70;99.90;;;;;;5067171;28;20289;-68
2022/10/18 04:27:46;;;;;;;0.00;0.00;;;16.70;99.90;;;;;;5065463;28;20252;-68
2022/10/18 04:30:13;;;;;;;0.00;0.00;;;16.70;99.90;;;;;;5066760;28;20194;-68
2022/10/18 04:32:40;;;;;;;0.00;0.00;;;16.70;99.90;;;;;;5063865;28;20271;-67
2022/10/18 04:35:10;;;;;;;0.00;0.00;;;16.70;99.90;;;;;;5067563;28;20219;-68
2022/10/18 04:37:37;;;;;;;0.00;0.00;;;16.60;99.90;;;;;;5049532;28;20313;-67
2022/10/18 04:40:05;;;;;;;0.00;0.00;;;16.60;99.90;;;;;;5067000;28;20286;-69
2022/10/18 04:42:32;;;;;;;0.00;0.00;;;16.60;99.90;;;;;;5065767;28;20209;-69
2022/10/18 04:45:00;;;;;;;0.00;0.00;;;16.60;99.90;;;;;;5067720;28;20202;-68
2022/10/18 04:47:26;;;;;;;0.00;0.00;;;16.60;99.90;;;;;;5067252;28;20288;-68
2022/10/18 04:49:53;;;;;;;0.00;0.00;;;16.50;99.90;;;;;;5084903;28;20626;-68
2022/10/18 04:52:22;;;;;;;0.00;0.00;;;16.50;99.90;;;;;;5068502;28;20202;-68
2022/10/18 04:54:49;;;;;;;0.00;0.00;;;16.40;99.90;;;;;;5067870;28;20198;-68
2022/10/18 04:57:16;;;;;;;0.00;0.00;;;16.40;99.90;;;;;;5069918;28;20211;-68
2022/10/18 04:59:43;;;;;;;0.00;0.00;;;16.40;99.90;;;;;;5069808;28;20225;-68
2022/10/18 05:02:10;;;;;;;0.00;0.00;;;16.40;99.90;;;;;;5069492;28;20309;-69
2022/10/18 05:04:37;;;;;;;0.00;0.00;;;16.40;99.90;;;;;;5070952;28;20262;-69
2022/10/18 05:07:05;;;;;;;0.00;0.00;;;16.30;99.90;;;;;;5066609;28;20272;-68
2022/10/18 05:09:33;;;;;;;0.00;0.00;;;16.30;99.90;;;;;;5066703;28;20214;-69
2022/10/18 05:12:01;;;;;;;0.00;0.00;;;16.30;99.90;;;;;;5068084;28;20268;-69
2022/10/18 05:14:28;;;;;;;0.00;0.00;;;16.30;99.90;;;;;;5067481;28;20194;-68
2022/10/18 05:16:57;;;;;;;0.00;0.00;;;16.30;99.90;;;;;;5070278;28;20194;-68
2022/10/18 05:19:24;;;;;;;0.00;0.00;;;16.30;99.90;;;;;;5067159;28;20239;-69
2022/10/18 05:21:51;;;;;;;0.00;0.00;;;16.30;99.90;;;;;;5069339;28;20226;-69
2022/10/18 05:24:18;;;;;;;0.00;0.00;;;16.30;99.90;;;;;;5069023;28;20195;-69
2022/10/18 05:26:47;;;;;;;0.00;0.00;;;16.30;99.90;;;;;;5070655;28;20248;-69
2022/10/18 05:29:14;;;;;;;0.00;0.00;;;16.30;99.90;;;;;;5071042;28;20215;-69
2022/10/18 05:31:41;;;;;;;0.00;0.00;;;16.30;99.90;;;;;;5070008;28;20199;-69
2022/10/18 05:34:08;;;;;;;0.00;0.00;;;16.30;99.90;;;;;;5066945;28;20218;-69
2022/10/18 05:36:35;;;;;;;0.00;0.00;;;16.30;99.90;;;;;;5065519;28;20207;-69
2022/10/18 05:39:04;;;;;;;0.00;0.00;;;16.20;99.90;;;;;;5070001;28;20210;-69
2022/10/18 05:41:30;;;;;;;0.00;0.00;;;16.20;99.90;;;;;;5066893;28;20281;-68
2022/10/18 05:44:02;;;;;;;0.00;0.00;;;16.20;99.90;;;;;;5068361;28;20202;-71
2022/10/18 05:46:30;;;;;;;0.00;0.00;;;16.20;99.90;;;;;;5087730;28;20202;-69
2022/10/18 05:48:57;;;;;;;0.00;0.00;;;16.20;99.90;;;;;;5070697;28;20241;-70
2022/10/18 05:51:24;;;;;;;0.00;0.00;;;16.20;99.90;;;;;;5069303;28;20230;-69
2022/10/18 05:53:51;;;;;;;0.00;0.00;;;;;;;;;;5068148;28;20239;-70
2022/10/18 05:56:19;;;;;;;0.00;0.00;;;;;;;;;;5065491;28;20206;-71
2022/10/18 05:58:50;;;;;;;0.00;0.00;;;;;;;;;;5069525;28;20313;-69
2022/10/18 06:01:19;;;;;;;0.00;0.00;;;;;;;;;;5055015;28;20199;-69
2022/10/18 06:03:46;;;;;;;0.00;0.00;;;16.20;99.90;;;;;;5070729;28;20222;-70
2022/10/18 06:06:14;;;;;;;0.00;0.00;;;16.10;99.90;;;;;;5067794;28;20213;-70
2022/10/18 06:08:42;;;;;;;0.00;0.00;;;16.10;99.90;;;;;;5083544;28;20224;-70
2022/10/18 06:11:13;;;;;;;0.00;0.00;;;16.10;99.90;;;;;;5064492;28;20205;-70
2022/10/18 06:13:42;;;;;;;0.00;0.00;;;16.00;99.90;;;;;;5071913;28;20210;-70
2022/10/18 06:16:10;;;;;;;0.00;0.00;;;16.00;99.90;;;;;;5066271;28;20277;-69
2022/10/18 06:18:40;;;;;;;0.00;0.00;;;16.00;99.90;;;;;;5070898;28;20249;-69
2022/10/18 06:21:10;;;;;;;0.00;0.00;;;16.00;99.90;;;;;;5065012;28;20203;-68
2022/10/18 06:23:38;;;;;;;0.00;0.00;;;16.00;99.90;;;;;;5069256;28;20619;-69
2022/10/18 06:26:07;;;;;;;0.00;0.00;;;16.00;99.90;;;;;;5071004;28;20687;-70
2022/10/18 06:28:35;;;;;;;0.00;0.00;;;16.00;99.90;;;;;;5066196;28;20229;-70
2022/10/18 06:31:02;;;;;;;0.00;0.00;;;16.10;99.90;;;;;;5085377;28;20286;-70
2022/10/18 06:33:31;;;;;;;0.00;0.00;;;16.10;99.90;;;;;;5102266;27;20203;-70
2022/10/18 06:36:00;;;;;;;0.00;0.00;;;16.10;99.90;;;;;;5068503;28;20358;-70
2022/10/18 06:38:29;;;;;;;0.00;0.00;;;16.10;99.90;;;;;;5052003;28;20308;-71
2022/10/18 06:40:57;;;;;;;0.00;0.00;;;16.10;99.90;;;;;;5066809;28;20223;-70
2022/10/18 06:43:24;;;;;;;0.00;0.00;;;16.10;99.90;;;;;;5068119;28;20264;-71
2022/10/18 06:45:52;;;;;;;0.00;0.00;;;16.10;99.90;;;;;;5066033;28;20263;-71
2022/10/18 06:48:19;;;;;;;0.00;0.00;;;16.10;99.90;;;;;;5069246;28;20266;-71
2022/10/18 06:50:51;;;;;;;0.00;0.00;;;16.10;99.90;;;;;;5067308;28;20224;-70
2022/10/18 06:53:20;;;;;;;0.00;0.00;;;16.10;99.90;;;;;;5066367;28;20386;-70
2022/10/18 06:55:47;;;;;;;0.00;0.00;;;16.10;99.90;;;;;;5064798;28;20203;-71
2022/10/18 06:58:14;;;;;;;0.00;0.00;;;16.10;99.90;;;;;;5068525;28;20597;-70
2022/10/18 07:00:43;;;;;;;0.00;0.00;;;16.10;99.90;;;;;;5050989;28;20295;-70
2022/10/18 07:03:10;;;;;;;0.00;0.00;;;16.10;99.90;;;;;;5066188;28;20237;-69
2022/10/18 07:05:37;;;;;;;0.00;0.00;;;16.10;99.90;;;;;;5064402;28;20202;-70
2022/10/18 07:08:04;;;;;;;0.00;0.00;;;16.10;99.90;;;;;;5068124;28;20249;-70
2022/10/18 07:10:33;;;;;;;0.00;0.00;;;16.10;99.90;;;;;;5065094;28;20220;-70
2022/10/18 07:13:00;;;;;;;0.00;0.00;;;16.10;99.90;;;;;;5065886;28;20207;-71
2022/10/18 07:15:30;;;;;;;0.00;0.00;;;16.10;99.90;;;;;;5051125;28;20664;-69
2022/10/18 07:17:56;;;;;;;0.00;0.00;;;16.10;99.90;;;;;;5069865;28;20698;-71
2022/10/18 07:20:24;;;;;;;0.00;0.00;;;16.10;99.90;;;;;;5073666;28;20218;-70
2022/10/18 07:22:55;;;;;;;0.00;0.00;;;16.10;99.90;;;;;;5065111;28;20198;-74
2022/10/18 07:25:23;;;;;;;0.00;0.00;;;16.10;99.90;;;;;;5067017;28;20289;-74
2022/10/18 07:27:51;;;;;;;0.00;0.00;;;16.10;99.90;;;;;;5061219;28;20287;-76
2022/10/18 07:30:18;;;;;;;0.00;0.00;;;16.10;99.90;;;;;;5065156;28;20270;-73
2022/10/18 07:32:45;;;;;;;0.00;0.00;;;16.10;99.90;;;;;;5066406;28;20198;-74
2022/10/18 07:35:12;;;;;;;0.00;0.00;;;16.10;99.90;;;;;;5063702;28;20209;-73
2022/10/18 07:37:39;;;;;;;0.00;0.00;;;16.10;99.90;;;;;;5066931;28;20237;-76
2022/10/18 07:40:08;;;;;;;0.00;0.00;;;16.00;99.90;;;;;;5064323;28;20225;-73
2022/10/18 07:42:35;;;;;;;0.00;0.00;;;16.00;99.90;;;;;;5065535;28;20206;-73
2022/10/18 07:45:04;;;;;;;0.00;0.00;;;16.00;99.90;;;;;;5064862;28;20213;-72
2022/10/18 07:47:31;;;;;;;0.00;0.00;;;16.00;99.90;;;;;;5064547;28;20213;-73
2022/10/18 07:49:58;;;;;;;0.00;0.00;;;16.00;99.90;;;;;;5064572;28;20190;-72
2022/10/18 07:52:26;;;;;;;0.00;0.00;;;16.00;99.90;;;;;;5068895;28;20208;-73
2022/10/18 07:54:53;;;;;;;0.00;0.00;;;16.00;99.90;;;;;;5063548;28;20199;-71
2022/10/18 07:57:20;;;;;;;0.00;0.00;;;16.00;99.90;;;;;;5066503;28;20723;-71
2022/10/18 07:59:51;;;;;;;0.00;0.00;;;16.00;99.90;;;;;;5063133;28;20214;-71
2022/10/18 08:02:19;;;;;;;0.00;0.00;;;15.90;99.90;;;;;;5069076;28;20194;-71
2022/10/18 08:04:46;;;;;;;0.00;0.00;;;15.90;99.90;;;;;;5064025;28;20293;-72
2022/10/18 08:07:14;;;;;;;0.00;0.00;;;;;;;;;;5062973;28;20240;-72
2022/10/18 08:09:41;;;;;;;0.00;0.00;;;;;;;;;;5065050;28;20230;-72
2022/10/18 08:12:09;;;;;;;0.00;0.00;;;;;;;;;;5067023;28;20348;-72
2022/10/18 08:14:36;;;;;;;0.00;0.00;;;;;;;;;;5064452;28;20218;-71
2022/10/18 08:17:03;;;;;;;0.00;0.00;;;;;;;;;;5065676;28;20232;-72
2022/10/18 08:19:32;;;;;;;0.00;0.00;;;;;;;;;;5063191;28;20321;-69
2022/10/18 08:21:59;;;;;;;0.00;0.00;;;;;;;;;;5066816;28;20202;-69
2022/10/18 08:24:26;;;;;;;0.00;0.00;;;;;;;;;;5068576;28;20262;-69
2022/10/18 08:26:54;;;;;;;0.00;0.00;;;;;;;;;;5068264;28;20205;-69
2022/10/18 08:29:21;;;;;;;0.00;0.00;;;;;;;;;;5067851;28;20326;-69
2022/10/18 08:31:50;;;;;;;0.00;0.00;;;;;;;;;;5067899;28;20290;-69
2022/10/18 08:34:17;;;;;;;0.00;0.00;;;;;;;;;;5071714;28;20201;-68
2022/10/18 08:36:46;;;;;;;0.00;0.00;;;;;;;;;;5066699;28;20709;-69
2022/10/18 08:39:13;;;;;;;0.00;0.00;;;;;;;;;;5072580;28;20273;-69
2022/10/18 08:41:52;;;;;;;0.00;0.00;;;;;;;;;;5070443;28;20250;-69
2022/10/18 08:44:20;;;;;;;0.00;0.00;;;;;;;;;;5066589;28;20206;-70
2022/10/18 08:46:49;;;;;;;0.00;0.00;;;;;;;;;;5067089;28;20198;-69
2022/10/18 08:49:21;;;;;;;0.00;0.00;;;;;;;;;;5066412;28;20313;-69
2022/10/18 08:51:51;;;;;;;0.00;0.00;;;;;;;;;;5099719;27;20191;-71
2022/10/18 08:54:23;;;;;;;0.00;0.00;;;;;;;;;;5054108;28;20202;-70
2022/10/18 08:56:57;;;;;;;0.00;0.00;;;;;;;;;;5070830;28;20191;-69
2022/10/18 08:59:24;;;;;;;0.00;0.00;;;;;;;;;;5098818;27;20218;-69
2022/10/18 09:01:57;;;;;;;0.00;0.00;;;;;;;;;;5072077;28;20202;-69
2022/10/18 09:04:37;;;;;;;0.00;0.00;;;;;;;;;;5071930;28;20199;-69
2022/10/18 09:07:14;;;;;;;0.00;0.00;;;;;;;;;;5069255;28;20201;-69
2022/10/18 09:09:45;;;;;;;0.00;0.00;;;;;;;;;;5065466;28;20222;-70
2022/10/18 09:12:21;;;;;;;0.00;0.00;;;;;;;;;;5066773;28;20222;-69
2022/10/18 09:15:01;;;;;;;0.00;0.00;;;;;;;;;;5104136;27;20311;-70
2022/10/18 09:17:32;;;;;;;0.00;0.00;;;;;;;;;;5067211;28;20204;-69
2022/10/18 09:20:04;;;;;;;0.00;0.00;;;;;;;;;;5068629;28;20742;-69
2022/10/18 09:22:39;;;;;;;0.00;0.00;;;;;;;;;;5068492;28;20207;-70
2022/10/18 09:25:12;;;;;;;0.00;0.00;;;;;;;;;;5073337;28;20202;-68
2022/10/18 09:27:44;;;;;;;0.00;0.00;;;;;;;;;;5101714;27;20222;-70
2022/10/18 09:30:16;;;;;;;0.00;0.00;;;;;;;;;;5104966;27;20198;-70
2022/10/18 09:32:48;;;;;;;0.00;0.00;;;;;;;;;;5071153;28;20221;-69
2022/10/18 09:35:18;;;;;;;0.00;0.00;;;;;;;;;;5067091;28;20203;-69
2022/10/18 09:37:51;;;;;;;0.00;0.00;;;;;;;;;;5068700;28;20245;-70
2022/10/18 09:40:20;;;;;;;0.00;0.00;;;;;;;;;;5085488;28;20326;-70
2022/10/18 09:42:54;;;;;;;0.00;0.00;;;;;;;;;;5069695;28;20194;-70
2022/10/18 09:45:25;;;;;;;0.00;0.00;;;;;;;;;;5085277;28;20285;-70
2022/10/18 09:47:56;;;;;;;0.00;0.00;;;;;;;;;;5071130;28;20218;-71
2022/10/18 09:50:26;;;;;;;0.00;0.00;;;;;;;;;;5071030;28;20610;-70
2022/10/18 09:53:00;;;;;;;0.00;0.00;;;;;;;;;;5069793;28;20652;-70
2022/10/18 09:55:31;;;;;;;0.00;0.00;;;;;;;;;;5068401;28;20272;-71
2022/10/18 09:58:00;;;;;;;0.00;0.00;;;;;;;;;;5070780;28;20266;-71
2022/10/18 10:00:30;;;;;;;0.00;0.00;;;;;;;;;;5071871;28;20329;-70
2022/10/18 10:02:58;;;;;;;0.00;0.00;;;;;;;;;;5070597;28;20355;-70
2022/10/18 10:05:25;;;;;;;0.00;0.00;;;;;;;;;;5082823;28;20194;-70
2022/10/18 10:08:01;;;;;;;0.00;0.00;;;;;;;;;;5065925;28;20666;-70
2022/10/18 10:10:31;;;;;;;0.00;0.00;;;;;;;;;;5051994;28;20224;-70
2022/10/18 10:13:07;;;;;;;0.00;0.00;;;;;;;;;;5069133;28;20202;-71
2022/10/18 10:15:35;;;;;;;0.00;0.00;;;;;;;;;;5071170;28;20211;-70
2022/10/18 10:18:04;;;;;;;0.00;0.00;;;;;;;;;;5098308;27;20285;-70
2022/10/18 10:20:35;;;;;;;0.00;0.00;;;;;;;;;;5066025;28;20876;-70
2022/10/18 10:23:06;;;;;;;0.00;0.00;;;;;;;;;;5068311;28;20282;-70
2022/10/18 10:25:36;;;;;;;0.00;0.00;;;;;;;;;;5064820;28;20589;-70
2022/10/18 10:28:05;;;;;;;0.00;0.00;;;;;;;;;;5068540;28;20250;-70
2022/10/18 10:30:33;;;;;;;0.00;0.00;;;;;;;;;;5079847;28;20198;-70
2022/10/18 10:33:01;;;;;;;0.00;0.00;;;;;;;;;;5068999;28;20205;-70
2022/10/18 10:35:30;;;;;;;0.00;0.00;;;;;;;;;;5067881;28;20252;-70
2022/10/18 10:37:57;;;;;;;0.00;0.00;;;;;;;;;;5063431;28;20267;-70
2022/10/18 10:40:25;;;;;;;0.00;0.00;;;;;;;;;;5067908;28;20242;-69
2022/10/18 10:42:57;;;;;;;0.00;0.00;;;;;;;;;;5068926;28;20270;-70
2022/10/18 10:45:26;;;;;;;0.00;0.00;;;;;;;;;;5054546;28;20207;-70
2022/10/18 10:47:54;;;;;;;0.00;0.00;;;;;;;;;;5067795;28;20214;-69
2022/10/18 10:50:26;;;;;;;0.00;0.00;;;;;;;;;;5068318;28;20198;-69
2022/10/18 10:52:54;;;;;;;0.00;0.00;;;;;;;;;;5066072;28;20207;-70
2022/10/18 10:55:26;;;;;;;0.00;0.00;;;;;;;;;;5072153;28;20212;-69
2022/10/18 10:57:56;;;;;;;0.00;0.00;;;;;;;;;;5052299;28;20222;-70
2022/10/18 11:00:36;;;;;;;0.00;0.00;;;;;;;;;;5071907;28;20638;-70
2022/10/18 11:03:06;;;;;;;0.00;0.00;;;;;;;;;;5102702;27;20274;-69
2022/10/18 11:05:42;;;;;;;0.00;0.00;;;;;;;;;;5066749;28;20206;-70
2022/10/18 11:08:11;;;;;;;0.00;0.00;;;;;;;;;;5101172;27;20281;-69
2022/10/18 11:10:45;;;;;;;0.00;0.00;;;;;;;;;;5070477;28;20229;-69
2022/10/18 11:13:23;;;;;;;0.00;0.00;;;;;;;;;;5066158;28;20205;-69
2022/10/18 11:15:53;;;;;;;0.00;0.00;;;;;;;;;;5065998;28;20198;-70
2022/10/18 11:18:27;;;;;;;0.00;0.00;;;15.90;99.90;;;;;;5065435;28;20214;-70
2022/10/18 11:21:01;;;;;;;0.00;0.00;;;17.20;99.90;;;;;;5067824;28;20214;-70
2022/10/18 11:23:32;;;;;;;0.00;0.00;;;17.20;99.90;;;;;;5100915;27;20198;-70
2022/10/18 11:26:11;;;;;;;0.00;0.00;;;17.20;99.90;;;;;;5064623;28;20204;-69
2022/10/18 11:28:53;;;;;;;0.00;0.00;;;17.20;99.90;;;;;;5069361;28;20774;-70
2022/10/18 11:31:27;;;;;;;0.00;0.00;;;17.20;99.90;;;;;;5067246;28;20201;-70
2022/10/18 11:34:06;;;;;;;0.00;0.00;;;17.20;99.90;;;;;;5054160;28;20225;-69
2022/10/18 11:36:41;;;;;;;0.00;0.00;;;17.30;99.90;;;;;;5065689;28;20206;-69
2022/10/18 11:39:17;;;;;;;0.00;0.00;;;17.30;99.90;;;;;;5067451;28;20252;-70
2022/10/18 11:41:50;;;;;;;0.00;0.00;;;17.30;99.90;;;;;;5083965;28;20276;-69
2022/10/18 11:44:30;;;;;;;0.00;0.00;;;17.40;99.90;;;;;;5048670;28;20232;-69
2022/10/18 11:47:04;;;;;;;0.00;0.00;;;17.40;99.90;;;;;;5083946;28;20198;-70
2022/10/18 11:49:48;;;;;;;0.00;0.00;;;17.50;99.90;;;;;;5069162;28;20235;-69
2022/10/18 11:52:24;;;;;;;0.00;0.00;;;17.50;99.90;;;;;;5070237;28;20225;-70
2022/10/18 11:55:03;;;;;;;0.00;0.00;;;17.50;99.90;;;;;;5068731;28;20194;-70
2022/10/18 11:57:43;;;;;;;0.00;0.00;;;17.60;99.90;;;;;;5067289;28;20214;-70
2022/10/18 12:00:24;;;;;;;0.00;0.00;;;17.60;99.90;;;;;;5085251;28;20214;-70
2022/10/18 12:03:18;;;;;;;0.00;0.00;;;17.60;99.90;;;;;;5065317;28;20209;-69
2022/10/18 12:05:48;;;;;;;0.00;0.00;;;17.60;99.90;;;;;;5066353;28;20199;-68
2022/10/18 12:08:20;;;;;;;0.00;0.00;;;17.80;99.90;;;;;;5064932;28;20218;-69
2022/10/18 12:10:51;;;;;;;0.00;0.00;;;17.90;99.90;;;;;;5071634;28;20215;-69
2022/10/18 12:13:23;;;;;;;0.00;0.00;;;17.90;99.90;;;;;;5069107;28;20217;-68
2022/10/18 12:15:52;;;;;;;0.00;0.00;;;17.90;99.90;;;;;;5067708;28;20213;-69
2022/10/18 12:18:24;;;;;;;0.00;0.00;;;17.80;99.90;;;;;;5065483;28;20252;-69
2022/10/18 12:20:54;;;;;;;0.00;0.00;;;17.70;99.90;;;;;;5051005;28;20594;-69
2022/10/18 12:23:32;;;;;;;0.00;0.00;;;17.70;99.90;;;;;;5066652;28;20213;-67
2022/10/18 12:26:02;;;;;;;0.00;0.00;;;17.60;99.90;;;;;;5096389;28;20202;-69
2022/10/18 12:28:38;;;;;;;0.00;0.00;;;17.60;99.90;;;;;;5068445;28;20213;-68
2022/10/18 12:31:17;;;;;;;0.00;0.00;;;17.60;99.90;;;;;;5070471;28;20189;-70
2022/10/18 12:33:48;;;;;;;0.00;0.00;;;17.50;99.90;;;;;;5083009;28;20206;-68
2022/10/18 12:36:36;;;;;;;0.00;0.00;;;17.60;99.90;;;;;;5067458;28;20203;-69
2022/10/18 12:39:09;;;;;;;0.00;0.00;;;17.60;99.90;;;;;;5067398;28;20221;-68
2022/10/18 12:41:37;;;;;;;0.00;0.00;;;17.60;99.90;;;;;;5064011;28;20226;-69
2022/10/18 12:44:06;;;;;;;0.00;0.00;;;17.70;99.90;;;;;;5065728;28;20194;-69
2022/10/18 12:46:55;;;;;;;0.00;0.00;;;17.70;99.90;;;;;;5066249;28;20213;-68
2022/10/18 12:49:27;;;;;;;0.00;0.00;;;17.80;99.90;;;;;;5096908;28;20305;-69
2022/10/18 12:51:57;;;;;;;0.00;0.00;;;17.90;99.90;;;;;;5082555;28;20281;-68
2022/10/18 12:54:29;;;;;;;0.00;0.00;;;18.00;99.90;;;;;;5067662;28;20209;-68
2022/10/18 12:56:57;;;;;;;0.00;0.00;;;18.00;99.90;;;;;;5071855;28;20668;-68
2022/10/18 12:59:52;;;;;;;0.00;0.00;;;18.10;99.90;;;;;;5065008;28;20313;-67
2022/10/18 13:02:31;;;;;;;0.00;0.00;;;18.10;99.90;;;;;;5065306;28;20226;-68
2022/10/18 13:05:00;;;;;;;0.00;0.00;;;18.20;99.90;;;;;;5067101;28;20202;-66
2022/10/18 13:07:48;;;;;;;0.00;0.00;;;18.20;99.90;;;;;;5064967;28;20205;-68
2022/10/18 13:10:40;;;;;;;0.00;0.00;;;18.20;99.90;;;;;;5058099;28;20208;-68
2022/10/18 13:13:40;;;;;;;0.00;0.00;;;18.20;99.90;;;;;;5065919;28;20198;-67
2022/10/18 13:16:21;;;;;;;0.00;0.00;;;18.20;99.90;;;;;;5067019;28;20218;-66
2022/10/18 13:18:55;;;;;;;0.00;0.00;;;18.10;99.90;;;;;;5056011;28;20226;-67
2022/10/18 13:21:33;;;;;;;0.00;0.00;;;18.10;99.90;;;;;;5069095;28;20209;-68
2022/10/18 13:24:25;;;;;;;0.00;0.00;;;18.00;99.90;;;;;;5082875;28;20233;-69
2022/10/18 13:27:21;;;;;;;0.00;0.00;;;17.90;99.90;;;;;;5062792;28;20628;-68
2022/10/18 13:30:13;;;;;;;0.00;0.00;;;17.90;99.90;;;;;;5055229;28;20203;-68
2022/10/18 13:32:52;;;;;;;0.00;0.00;;;17.80;99.90;;;;;;5070380;28;20198;-66
2022/10/18 13:35:44;;;;;;;0.00;0.00;;;17.80;99.90;;;;;;5072449;28;20233;-69
2022/10/18 13:38:33;;;;;;;0.00;0.00;;;17.70;99.90;;;;;;5066718;28;20220;-68